East Kilbride, United Kingdom
Current Conditions -  °F | °C
As of 8:20 PM on Wednesday 26 Nov 2014 (Local Time) from EGPF Reporting Station
Moderate Rain Moderate Rain  
Wind Chill:   Ceiling: 800
Heat Index:   Visibility: 2.5mi
Dew Point:   Wind: 2mph
Humidity: 100%   Direction: 30°NNE
Pressure: 29.83"   Gusts: NA
Location:  55.77°N, 4.18°W
Report Text: EGPF 262020Z AUTO 03002KT 4000 RA OVC008 05/05 Q1010
Loading
Personal Weather Stations






























Interactive Weather Map New forecast layout! Learn more

10-Day Weather Forecast

Advertisements
Track Severe Weather on mobile